Time;durP1;ratioP1;P1;durP2;ratioP2;P2;SDS_P1;SDS_P2;PMS_P1;PMS_P2;Temp;Humidity;BMP_temperature;BMP_pressure;BME280_temperature;BME280_humidity;BME280_pressure;Samples;Min_cycle;Max_cycle;Signal;HPM_P1;HPM_P2
2022/10/20 00:00:57;;;;;;;1.10;0.93;;;;;;;;;;5039160;27;89636;-55
2022/10/20 00:03:25;;;;;;;1.67;0.90;;;;;;;;;;5040910;27;86964;-55
2022/10/20 00:05:54;;;;;;;1.00;0.80;;;;;;;;;;5060745;27;87190;-55
2022/10/20 00:08:22;;;;;;;1.50;1.00;;;;;;;;;;5060287;27;87917;-54
2022/10/20 00:10:53;;;;;;;1.23;1.07;;;;;;;;;;5041299;27;87390;-56
2022/10/20 00:13:22;;;;;;;1.60;1.50;;;;;;;;;;5041427;27;87071;-57
2022/10/20 00:15:50;;;;;;;0.77;0.70;;;;;;;;;;5042010;27;86286;-55
2022/10/20 00:18:20;;;;;;;1.43;1.33;;;;;;;;;;5057030;27;88266;-56
2022/10/20 00:20:48;;;;;;;2.43;0.97;;;;;;;;;;5041776;27;87669;-54
2022/10/20 00:23:16;;;;;;;1.10;1.00;;;;;;;;;;5041003;27;87908;-55
2022/10/20 00:25:44;;;;;;;3.90;1.43;;;;;;;;;;5042643;27;87172;-55
2022/10/20 00:28:13;;;;;;;1.33;1.00;;;;;;;;;;5044397;27;88788;-53
2022/10/20 00:30:41;;;;;;;1.80;1.00;;;;;;;;;;5044807;27;87777;-54
2022/10/20 00:33:09;;;;;;;1.27;1.07;;;;;;;;;;5045217;27;86994;-54
2022/10/20 00:35:39;;;;;;;1.07;0.97;;;;;;;;;;5063441;27;87036;-55
2022/10/20 00:38:07;;;;;;;2.40;0.90;;;;;;;;;;5048094;27;88236;-55
2022/10/20 00:40:36;;;;;;;0.63;0.63;;;;;;;;;;5045182;27;88971;-54
2022/10/20 00:43:04;;;;;;;1.40;1.03;;;;;;;;;;5044861;27;87093;-54
2022/10/20 00:45:32;;;;;;;1.33;1.10;;;;;;;;;;5044471;27;86956;-54
2022/10/20 00:48:01;;;;;;;1.00;0.90;;;;;;;;;;5042757;27;88626;-54
2022/10/20 00:50:30;;;;;;;3.00;1.33;;;;;;;;;;5044000;27;88558;-55
2022/10/20 00:52:59;;;;;;;1.20;0.87;;;;;;;;;;5044306;27;86964;-55
2022/10/20 00:55:28;;;;;;;4.67;1.13;;;;;;;;;;5044412;27;86825;-54
2022/10/20 00:57:57;;;;;;;1.17;0.87;;;;;;;;;;5043650;27;88889;-54
2022/10/20 01:00:25;;;;;;;1.27;1.10;;;;;;;;;;5044173;27;88820;-55
2022/10/20 01:02:53;;;;;;;0.90;0.90;;;;;;;;;;5044353;27;86964;-54
2022/10/20 01:05:22;;;;;;;1.00;0.90;;;;;;;;;;5044710;27;86330;-55
2022/10/20 01:07:50;;;;;;;1.43;1.10;;;;;;;;;;5043980;27;87801;-55
2022/10/20 01:10:20;;;;;;;1.97;1.47;;;;;;;;;;5044690;27;88984;-54
2022/10/20 01:12:50;;;;;;;1.70;1.60;;;;;;;;;;5043790;27;88006;-54
2022/10/20 01:15:21;;;;;;;1.57;0.87;;;;;;;;;;5043294;27;86976;-55
2022/10/20 01:17:50;;;;;;;1.77;1.00;;;;;;;;;;5043290;27;87855;-55
2022/10/20 01:20:24;;;;;;;4.17;1.27;;;;;;;;;;5043896;27;87612;-55
2022/10/20 01:23:04;;;;;;;1.10;0.97;;;;;;;;;;5044356;27;86933;-55
2022/10/20 01:25:37;;;;;;;1.10;0.80;;;;;;;;;;5044108;27;87055;-54
2022/10/20 01:28:07;;;;;;;1.10;0.90;;;;;;;;;;5059528;27;87112;-55
2022/10/20 01:30:35;;;;;;;1.93;1.47;;;;;;;;;;5064474;27;87619;-54
2022/10/20 01:33:08;;;;;;;1.40;1.30;;;;;;;;;;5062573;27;87033;-55
2022/10/20 01:35:42;;;;;;;1.93;1.10;;;;;;;;;;5063772;27;86943;-55
2022/10/20 01:38:15;;;;;;;1.63;0.90;;;;;;;;;;5061610;27;89006;-54
2022/10/20 01:40:45;;;;;;;2.03;0.80;;;;;;;;;;5064043;27;89745;-54
2022/10/20 01:43:14;;;;;;;1.23;1.10;;;;;;;;;;5057737;27;87021;-54
2022/10/20 01:45:44;;;;;;;2.40;1.10;;;;;;;;;;5043757;27;87025;-54
2022/10/20 01:48:12;;;;;;;1.60;1.50;;;;;;;;;;5050653;27;87052;-55
2022/10/20 01:50:41;;;;;;;2.43;1.43;;;;;;;;;;5063704;27;87078;-54
2022/10/20 01:53:09;;;;;;;3.53;1.37;;;;;;;;;;5060193;27;86951;-55
2022/10/20 01:55:37;;;;;;;1.20;1.10;;;;;;;;;;5045056;27;86186;-54
2022/10/20 01:58:15;;;;;;;1.20;0.90;;;;;;;;;;5042765;27;87073;-55
2022/10/20 02:00:45;;;;;;;2.57;1.60;;;;;;;;;;5042936;27;86961;-54
2022/10/20 02:03:21;;;;;;;3.10;1.20;;;;;;;;;;5048217;27;87901;-55
2022/10/20 02:05:55;;;;;;;1.40;1.30;;;;;;;;;;5063448;27;86977;-55
2022/10/20 02:08:28;;;;;;;2.00;1.07;;;;;;;;;;5063157;27;88121;-55
2022/10/20 02:10:58;;;;;;;1.77;1.33;;;;;;;;;;5063533;27;87916;-55
2022/10/20 02:13:26;;;;;;;1.67;1.27;;;;;;;;;;5062235;27;86825;-54
2022/10/20 02:15:57;;;;;;;2.00;1.73;;;;;;;;;;5063918;27;86889;-55
2022/10/20 02:18:26;;;;;;;3.13;1.60;;;;;;;;;;5058285;27;86886;-55
2022/10/20 02:20:55;;;;;;;2.80;1.53;;;;;;;;;;5043243;27;87877;-55
2022/10/20 02:23:23;;;;;;;2.70;1.20;;;;;;;;;;5049579;27;87045;-55
2022/10/20 02:25:52;;;;;;;2.03;1.30;;;;;;;;;;5063124;27;87119;-54
2022/10/20 02:28:20;;;;;;;3.03;1.47;;;;;;;;;;5062676;27;89693;-55
2022/10/20 02:30:48;;;;;;;2.40;1.47;;;;;;;;;;5063121;27;89826;-55
2022/10/20 02:33:18;;;;;;;2.93;1.73;;;;;;;;;;5061663;27;86979;-54
2022/10/20 02:35:50;;;;;;;2.17;0.80;;;;;;;;;;5052528;27;86947;-55
2022/10/20 02:38:18;;;;;;;1.37;1.17;;;;;;;;;;5042319;27;87700;-55
2022/10/20 02:40:46;;;;;;;1.43;1.27;;;;;;;;;;5042692;27;87582;-54
2022/10/20 02:43:14;;;;;;;2.60;1.60;;;;;;;;;;5047929;27;87037;-54
2022/10/20 02:45:43;;;;;;;1.10;1.00;;;;;;;;;;5063681;27;86298;-55
2022/10/20 02:48:11;;;;;;;2.07;1.67;;;;;;;;;;5059913;27;87091;-55
2022/10/20 02:50:41;;;;;;;2.27;1.47;;;;;;;;;;5042936;28;87743;-55
2022/10/20 02:53:09;;;;;;;1.43;1.27;;;;;;;;;;5043589;27;87776;-54
2022/10/20 02:55:37;;;;;;;1.50;1.27;;;;;;;;;;5042524;27;86997;-54
2022/10/20 02:58:05;;;;;;;2.73;1.77;;;;;;;;;;5043308;27;89074;-53
2022/10/20 03:00:34;;;;;;;1.57;1.47;;;;;;;;;;5062603;27;87561;-55
2022/10/20 03:03:02;;;;;;;1.57;1.40;;;;;;;;;;5063274;27;87105;-55
2022/10/20 03:05:30;;;;;;;3.93;1.40;;;;;;;;;;5042522;27;87189;-55
2022/10/20 03:08:00;;;;;;;2.40;1.57;;;;;;;;;;5041862;27;87969;-55
2022/10/20 03:10:28;;;;;;;2.27;1.57;;;;;;;;;;5042772;27;87737;-55
2022/10/20 03:12:56;;;;;;;1.33;1.23;;;;;;;;;;5042835;27;87002;-54
2022/10/20 03:15:25;;;;;;;1.43;1.10;;;;;;;;;;5041971;27;88570;-55
2022/10/20 03:17:53;;;;;;;4.13;1.43;;;;;;;;;;5042182;27;89881;-54
2022/10/20 03:20:21;;;;;;;3.23;1.17;;;;;;;;;;5062589;27;88629;-55
2022/10/20 03:22:50;;;;;;;1.80;1.70;;;;;;;;;;5063110;27;86883;-54
2022/10/20 03:25:19;;;;;;;4.37;1.03;;;;;;;;;;5060763;27;87146;-54
2022/10/20 03:27:47;;;;;;;1.53;1.43;;;;;;;;;;5062173;27;88045;-55
2022/10/20 03:30:16;;;;;;;2.13;1.53;;;;;;;;;;5044342;27;87496;-55
2022/10/20 03:32:44;;;;;;;1.43;1.33;;;;;;;;;;5055579;27;87049;-55
2022/10/20 03:35:12;;;;;;;1.63;1.00;;;;;;;;;;5055152;27;86134;-55
2022/10/20 03:37:40;;;;;;;1.37;1.03;;;;;;;;;;5041726;28;88045;-55
2022/10/20 03:40:09;;;;;;;3.20;1.33;;;;;;;;;;5059555;27;87738;-54
2022/10/20 03:42:47;;;;;;;1.93;1.40;;;;;;;;;;5061672;27;87907;-55
2022/10/20 03:45:15;;;;;;;2.93;1.10;;;;;;;;;;5061965;27;86876;-55
2022/10/20 03:47:45;;;;;;;1.50;1.30;;;;;;;;;;5046118;27;87850;-55
2022/10/20 03:50:14;;;;;;;3.07;1.30;;;;;;;;;;5059831;27;87812;-55
2022/10/20 03:52:42;;;;;;;4.50;1.43;;;;;;;;;;5062912;27;87030;-55
2022/10/20 03:55:10;;;;;;;1.00;1.00;;;;;;;;;;5061996;27;87108;-54
2022/10/20 03:57:39;;;;;;;3.40;1.43;;;;;;;;;;5050310;27;89071;-54
2022/10/20 04:00:09;;;;;;;2.90;1.50;;;;;;;;;;5047389;27;87658;-55
2022/10/20 04:02:37;;;;;;;2.37;1.20;;;;;;;;;;5053662;27;86824;-54
2022/10/20 04:05:07;;;;;;;2.10;1.40;;;;;;;;;;5049645;27;87125;-54
2022/10/20 04:07:35;;;;;;;1.40;1.07;;;;;;;;;;5059210;27;88988;-55
2022/10/20 04:10:03;;;;;;;1.27;1.17;;;;;;;;;;5060122;27;89699;-55
2022/10/20 04:12:32;;;;;;;0.63;0.63;;;;;;;;;;5053057;27;87134;-55
2022/10/20 04:15:00;;;;;;;0.97;0.70;;;;;;;;;;5052320;27;86845;-55
2022/10/20 04:17:30;;;;;;;1.60;0.90;;;;;;;;;;5053247;27;88748;-57
2022/10/20 04:19:58;;;;;;;2.03;1.10;;;;;;;;;;5061576;27;87044;-55
2022/10/20 04:22:27;;;;;;;3.90;0.90;;;;;;;;;;5053870;27;87292;-55
2022/10/20 04:24:55;;;;;;;0.50;0.47;;;;;;;;;;5052157;27;86321;-54
2022/10/20 04:27:23;;;;;;;1.90;1.00;;;;;;;;;;5052023;27;88089;-56
2022/10/20 04:29:51;;;;;;;0.80;0.80;;;;;;;;;;5044620;27;87630;-56
2022/10/20 04:32:20;;;;;;;0.80;0.80;;;;;;;;;;5052953;27;88081;-54
2022/10/20 04:34:49;;;;;;;1.23;1.00;;;;;;;;;;5052243;27;87129;-56
2022/10/20 04:37:17;;;;;;;0.90;0.57;;;;;;;;;;5048713;27;90268;-55
2022/10/20 04:39:46;;;;;;;0.93;0.73;;;;;;;;;;5051334;27;88702;-55
2022/10/20 04:42:14;;;;;;;3.00;0.77;;;;;;;;;;5049672;27;87460;-55
2022/10/20 04:44:42;;;;;;;0.67;0.63;;;;;;;;;;5044536;27;87272;-55
2022/10/20 04:47:10;;;;;;;1.27;0.80;;;;;;;;;;5040672;27;87987;-55
2022/10/20 04:49:39;;;;;;;1.43;0.77;;;;;;;;;;5040945;27;87897;-54
2022/10/20 04:52:08;;;;;;;1.27;0.70;;;;;;;;;;5041095;27;87065;-54
2022/10/20 04:54:37;;;;;;;0.60;0.60;;;;;;;;;;5048080;27;87115;-55
2022/10/20 04:57:05;;;;;;;2.07;0.70;;;;;;;;;;5060404;27;89271;-55
2022/10/20 04:59:33;;;;;;;1.50;0.53;;;;;;;;;;5060389;27;89772;-55
2022/10/20 05:02:01;;;;;;;0.60;0.60;;;;;;;;;;5060835;27;86893;-55
2022/10/20 05:04:30;;;;;;;1.03;0.70;;;;;;;;;;5054220;27;87094;-54
2022/10/20 05:06:58;;;;;;;1.20;0.60;;;;;;;;;;5058068;27;88381;-54
2022/10/20 05:09:28;;;;;;;1.00;0.67;;;;;;;;;;5060917;27;86855;-55
2022/10/20 05:11:56;;;;;;;1.20;0.80;;;;;;;;;;5063990;27;87103;-55
2022/10/20 05:14:24;;;;;;;0.53;0.50;;;;;;;;;;5058805;27;86740;-54
2022/10/20 05:16:53;;;;;;;0.67;0.60;;;;;;;;;;5043747;27;87860;-56
2022/10/20 05:19:21;;;;;;;0.63;0.60;;;;;;;;;;5044871;27;87427;-55
2022/10/20 05:21:49;;;;;;;0.60;0.60;;;;;;;;;;5044108;27;87946;-55
2022/10/20 05:24:18;;;;;;;0.60;0.60;;;;;;;;;;5048068;27;86888;-55
2022/10/20 05:26:51;;;;;;;0.63;0.63;;;;;;;;;;5063625;27;87162;-55
2022/10/20 05:29:19;;;;;;;1.17;0.90;;;;;;;;;;5061915;27;87626;-55
2022/10/20 05:31:49;;;;;;;0.60;0.60;;;;;;;;;;5063970;27;87001;-55
2022/10/20 05:34:17;;;;;;;0.70;0.43;;;;;;;;;;5063303;27;87173;-55
2022/10/20 05:36:45;;;;;;;0.60;0.60;;;;;;;;;;5063597;27;88164;-55
2022/10/20 05:39:13;;;;;;;1.57;1.00;;;;;;;;;;5062786;27;88671;-55
2022/10/20 05:41:42;;;;;;;0.40;0.40;;;;;;;;;;5064452;27;87180;-54
2022/10/20 05:44:13;;;;;;;0.40;0.40;;;;;;;;;;5061623;27;87665;-55
2022/10/20 05:46:41;;;;;;;0.50;0.50;;;;;;;;;;5042317;27;89119;-55
2022/10/20 05:49:12;;;;;;;0.80;0.80;;;;;;;;;;5042994;27;88431;-55
2022/10/20 05:51:41;;;;;;;0.60;0.60;;;;;;;;;;5063994;27;86924;-55
2022/10/20 05:54:10;;;;;;;0.50;0.50;;;;;;;;;;5061622;27;87000;-55
2022/10/20 05:56:38;;;;;;;0.83;0.63;;;;;;;;;;5044016;27;89110;-55
2022/10/20 05:59:06;;;;;;;0.40;0.40;;;;;;;;;;5043189;27;86952;-55
2022/10/20 06:01:46;;;;;;;0.60;0.60;;;;;;;;;;5042147;27;87094;-54
2022/10/20 06:04:16;;;;;;;1.13;0.80;;;;;;;;;;5046076;27;86733;-54
2022/10/20 06:06:44;;;;;;;1.23;1.00;;;;;;;;;;5063806;27;88496;-54
2022/10/20 06:09:13;;;;;;;0.67;0.67;;;;;;;;;;5062940;27;87954;-53
2022/10/20 06:11:41;;;;;;;0.70;0.70;;;;;;;;;;5043140;27;87778;-54
2022/10/20 06:14:09;;;;;;;2.13;0.60;;;;;;;;;;5044282;27;86986;-53
2022/10/20 06:16:39;;;;;;;1.30;0.80;;;;;;;;;;5063769;27;88859;-56
2022/10/20 06:19:07;;;;;;;1.33;0.90;;;;;;;;;;5062942;27;87547;-54
2022/10/20 06:21:36;;;;;;;0.63;0.63;;;;;;;;;;5043145;27;86726;-54
2022/10/20 06:24:05;;;;;;;0.57;0.57;;;;;;;;;;5042750;27;86774;-53
2022/10/20 06:26:35;;;;;;;1.70;1.00;;;;;;;;;;5043125;27;87731;-54
2022/10/20 06:29:04;;;;;;;0.67;0.60;;;;;;;;;;5043558;28;88907;-54
2022/10/20 06:31:33;;;;;;;0.60;0.50;;;;;;;;;;5062748;27;87099;-54
2022/10/20 06:34:02;;;;;;;0.60;0.60;;;;;;;;;;5062473;27;86793;-54
2022/10/20 06:36:31;;;;;;;1.37;0.80;;;;;;;;;;5041330;27;89035;-54
2022/10/20 06:39:00;;;;;;;0.73;0.63;;;;;;;;;;5041513;28;88762;-54
2022/10/20 06:41:28;;;;;;;1.13;0.60;;;;;;;;;;5042463;27;87101;-54
2022/10/20 06:43:59;;;;;;;0.70;0.70;;;;;;;;;;5042950;27;87045;-54
2022/10/20 06:46:27;;;;;;;2.30;0.93;;;;;;;;;;5042165;27;89213;-54
2022/10/20 06:48:55;;;;;;;1.53;0.90;;;;;;;;;;5043086;27;87773;-54
2022/10/20 06:51:27;;;;;;;0.60;0.60;;;;;;;;;;5042473;27;86979;-54
2022/10/20 06:53:56;;;;;;;1.27;1.00;;;;;;;;;;5042455;27;86260;-54
2022/10/20 06:56:24;;;;;;;2.10;0.80;;;;;;;;;;5042498;27;88173;-54
2022/10/20 06:58:53;;;;;;;0.60;0.60;;;;;;;;;;5042218;27;87841;-54
2022/10/20 07:01:22;;;;;;;0.60;0.60;;;;;;;;;;5041289;27;88021;-54
2022/10/20 07:03:51;;;;;;;0.60;0.60;;;;;;;;;;5042189;27;87052;-54
2022/10/20 07:06:20;;;;;;;1.37;0.83;;;;;;;;;;5041426;27;87935;-54
2022/10/20 07:08:52;;;;;;;0.63;0.63;;;;;;;;;;5042282;27;87503;-54
2022/10/20 07:11:21;;;;;;;0.80;0.70;;;;;;;;;;5041918;27;87094;-54
2022/10/20 07:13:49;;;;;;;1.13;1.00;;;;;;;;;;5042652;27;87055;-54
2022/10/20 07:16:18;;;;;;;1.33;0.70;;;;;;;;;;5061718;27;88329;-54
2022/10/20 07:18:46;;;;;;;0.80;0.80;;;;;;;;;;5063029;27;87584;-54
2022/10/20 07:21:15;;;;;;;1.97;1.03;;;;;;;;;;5061259;27;89174;-54
2022/10/20 07:23:43;;;;;;;0.77;0.77;;;;;;;;;;5062678;27;87018;-53
2022/10/20 07:26:13;;;;;;;1.03;0.73;;;;;;;;;;5061583;27;89215;-53
2022/10/20 07:28:44;;;;;;;1.07;0.80;;;;;;;;;;5055519;27;88678;-53
2022/10/20 07:31:13;;;;;;;1.13;0.60;;;;;;;;;;5045188;27;87014;-53
2022/10/20 07:33:42;;;;;;;0.70;0.70;;;;;;;;;;5042306;27;86951;-53
2022/10/20 07:36:14;;;;;;;2.00;0.80;;;;;;;;;;5040233;27;88170;-53
2022/10/20 07:38:42;;;;;;;0.77;0.60;;;;;;;;;;5042431;27;87794;-53
2022/10/20 07:41:10;;;;;;;0.80;0.60;;;;;;;;;;5062061;27;87141;-54
2022/10/20 07:43:40;;;;;;;0.67;0.60;;;;;;;;;;5060375;27;86289;-54
2022/10/20 07:46:08;;;;;;;1.03;0.63;;;;;;;;;;5044600;27;88893;-54
2022/10/20 07:48:37;;;;;;;0.97;0.87;;;;;;;;;;5041157;27;87007;-54
2022/10/20 07:51:15;;;;;;;1.20;0.97;;;;;;;;;;5061121;27;88972;-54
2022/10/20 07:53:44;;;;;;;1.20;1.10;;;;;;;;;;5043324;27;86967;-55
2022/10/20 07:56:12;;;;;;;1.13;0.87;;;;;;;;;;5045264;27;88284;-54
2022/10/20 07:58:42;;;;;;;1.17;0.80;;;;;;;;;;5053435;27;87804;-55
2022/10/20 08:01:10;;;;;;;4.30;1.03;;;;;;;;;;5048050;27;86917;-55
2022/10/20 08:03:38;;;;;;;1.83;1.10;;;;;;;;;;5059841;27;87047;-55
2022/10/20 08:06:07;;;;;;;1.13;0.73;;;;;;;;;;5061997;27;87712;-56
2022/10/20 08:08:35;;;;;;;1.03;0.83;;;;;;;;;;5072851;27;87922;-58
2022/10/20 08:11:03;;;;;;;0.60;0.60;;;;;;;;;;5067412;27;87426;-56
2022/10/20 08:13:32;;;;;;;1.00;0.80;;;;;;;;;;5041252;27;87055;-55
2022/10/20 08:16:01;;;;;;;1.23;0.90;;;;;;;;;;5040536;28;88646;-56
2022/10/20 08:18:29;;;;;;;1.00;0.90;;;;;;;;;;5041014;27;88827;-55
2022/10/20 08:21:06;;;;;;;2.50;0.80;;;;;;;;;;5041708;28;86785;-55
2022/10/20 08:23:34;;;;;;;1.03;1.00;;;;;;;;;;5041436;27;87013;-56
2022/10/20 08:26:02;;;;;;;1.97;1.23;;;;;;;;;;5040943;27;88509;-55
2022/10/20 08:28:37;;;;;;;0.80;0.80;;;;;;;;;;5040999;27;88833;-56
2022/10/20 08:31:07;;;;;;;3.23;0.93;;;;;;;;;;5041205;27;86739;-56
2022/10/20 08:33:36;;;;;;;2.83;1.17;;;;;;;;;;5042037;28;86266;-55
2022/10/20 08:36:04;;;;;;;0.97;0.80;;;;;;;;;;5041166;27;89419;-55
2022/10/20 08:38:33;;;;;;;2.10;1.53;;;;;;;;;;5041355;27;87863;-57
2022/10/20 08:41:01;;;;;;;1.03;1.00;;;;;;;;;;5041121;27;87967;-55
2022/10/20 08:43:30;;;;;;;1.90;0.93;;;;;;;;;;5041455;27;86845;-56
2022/10/20 08:45:58;;;;;;;0.97;0.97;;;;;;;;;;5041226;27;87974;-55
2022/10/20 08:48:29;;;;;;;6.10;1.13;;;;;;;;;;5044181;27;87814;-55
2022/10/20 08:50:57;;;;;;;1.80;1.20;;;;;;;;;;5044794;27;87040;-56
2022/10/20 08:53:26;;;;;;;2.23;0.97;;;;;;;;;;5044412;27;87154;-55
2022/10/20 08:55:55;;;;;;;1.90;1.20;;;;;;;;;;5044561;27;87875;-56
2022/10/20 08:58:24;;;;;;;1.90;1.30;;;;;;;;;;5044973;27;87579;-58
2022/10/20 09:00:55;;;;;;;2.40;1.40;;;;;;;;;;5044998;27;86842;-56
2022/10/20 09:03:26;;;;;;;1.03;0.93;;;;;;;;;;5044271;27;86970;-56
2022/10/20 09:05:57;;;;;;;1.23;1.10;;;;;;;;;;5043846;27;88835;-59
2022/10/20 09:08:26;;;;;;;1.80;1.50;;;;;;;;;;5044353;27;88489;-55
2022/10/20 09:10:55;;;;;;;4.03;0.97;;;;;;;;;;5044514;27;87002;-55
2022/10/20 09:13:23;;;;;;;2.13;1.03;;;;;;;;;;5044367;27;87134;-55
2022/10/20 09:15:52;;;;;;;1.10;0.93;;;;;;;;;;5044269;27;87752;-54
2022/10/20 09:18:20;;;;;;;1.80;1.70;;;;;;;;;;5043503;27;88162;-55
2022/10/20 09:20:49;;;;;;;1.10;1.00;;;;;;;;;;5043599;27;86909;-55
2022/10/20 09:23:20;;;;;;;2.60;1.30;;;;;;;;;;5044544;27;86144;-55
2022/10/20 09:26:11;;;;;;;3.80;1.03;;;;;;;;;;5044120;27;89127;-55
2022/10/20 09:29:04;;;;;;;3.93;0.80;;;;;;;;;;5043877;27;87523;-55
2022/10/20 09:31:41;;;;;;;1.20;1.07;;;;;;;;;;5043265;27;87873;-56
2022/10/20 09:34:27;;;;;;;3.27;1.57;;;;;;;;;;5044098;27;86978;-54
2022/10/20 09:36:56;;;;;;;1.27;1.10;;;;;;;;;;5043591;27;88010;-55
2022/10/20 09:39:27;;;;;;;1.67;1.00;;;;;;;;;;5043266;27;87548;-55
2022/10/20 09:42:00;;;;;;;1.47;1.30;;;;;;;;;;5043951;27;87052;-55
2022/10/20 09:44:31;;;;;;;1.47;1.30;;;;;;;;;;5044171;27;87101;-55
2022/10/20 09:46:59;;;;;;;1.67;1.10;;;;;;;;;;5043632;27;87882;-55
2022/10/20 09:49:28;;;;;;;2.77;1.37;;;;;;;;;;5043952;27;87686;-56
2022/10/20 09:51:57;;;;;;;1.97;1.20;;;;;;;;;;5043873;27;86885;-55
2022/10/20 09:54:26;;;;;;;2.63;1.23;;;;;;;;;;5043643;27;87058;-54
2022/10/20 09:56:55;;;;;;;5.70;1.20;;;;;;;;;;5042682;27;88943;-55
2022/10/20 09:59:24;;;;;;;2.70;1.10;;;;;;;;;;5045465;27;88591;-56
2022/10/20 10:01:55;;;;;;;1.57;1.10;;;;;;;;;;5061894;27;86992;-55
2022/10/20 10:04:30;;;;;;;1.93;1.13;;;;;;;;;;5062489;27;86992;-55
2022/10/20 10:06:58;;;;;;;2.13;1.37;;;;;;;;;;5063722;27;88129;-55
2022/10/20 10:09:29;;;;;;;1.23;1.13;;;;;;;;;;5063637;27;87789;-55
2022/10/20 10:11:59;;;;;;;2.50;1.10;;;;;;;;;;5064086;27;86858;-54
2022/10/20 10:14:27;;;;;;;1.13;0.90;;;;;;;;;;5064061;27;86281;-55
2022/10/20 10:16:56;;;;;;;2.63;1.07;;;;;;;;;;5063293;27;88794;-54
2022/10/20 10:19:26;;;;;;;2.43;1.50;;;;;;;;;;5063387;27;87861;-55
2022/10/20 10:21:55;;;;;;;2.13;1.20;;;;;;;;;;5063610;27;87927;-55
2022/10/20 10:24:28;;;;;;;1.87;1.43;;;;;;;;;;5063962;27;87008;-55
2022/10/20 10:26:58;;;;;;;0.90;0.83;;;;;;;;;;5062967;27;88075;-55
2022/10/20 10:29:26;;;;;;;1.80;1.10;;;;;;;;;;5062593;27;88081;-56
2022/10/20 10:31:58;;;;;;;1.83;1.10;;;;;;;;;;5062786;27;87071;-55
2022/10/20 10:34:35;;;;;;;1.37;0.90;;;;;;;;;;5063044;27;86950;-54
2022/10/20 10:37:04;;;;;;;1.93;1.17;;;;;;;;;;5063183;27;87792;-55
2022/10/20 10:39:33;;;;;;;3.13;1.70;;;;;;;;;;5063530;27;87970;-55
2022/10/20 10:42:05;;;;;;;2.37;1.57;;;;;;;;;;5063055;27;87577;-55
2022/10/20 10:44:37;;;;;;;5.43;1.80;;;;;;;;;;5063159;27;87038;-55
2022/10/20 10:47:08;;;;;;;1.67;1.23;;;;;;;;;;5062209;27;89073;-55
2022/10/20 10:49:42;;;;;;;1.77;1.63;;;;;;;;;;5062903;27;88312;-55
2022/10/20 10:52:15;;;;;;;1.70;1.20;;;;;;;;;;5063573;27;86729;-55
2022/10/20 10:54:50;;;;;;;1.50;1.23;;;;;;;;;;5063168;27;87071;-55
2022/10/20 10:57:22;;;;;;;2.03;1.10;;;;;;;;;;5062935;27;88173;-55
2022/10/20 10:59:50;;;;;;;2.27;1.43;;;;;;;;;;5062246;27;86997;-53
2022/10/20 11:02:23;;;;;;;2.30;1.30;;;;;;;;;;5062516;27;87110;-55
2022/10/20 11:04:58;;;;;;;1.80;1.43;;;;;;;;;;5062977;27;86118;-54
2022/10/20 11:07:29;;;;;;;1.10;1.00;;;;;;;;;;5062541;27;88772;-55
2022/10/20 11:10:01;;;;;;;2.00;1.27;;;;;;;;;;5062936;27;88663;-54
2022/10/20 11:12:37;;;;;;;2.53;1.30;;;;;;;;;;5062190;27;87937;-55
2022/10/20 11:15:09;;;;;;;2.20;1.50;;;;;;;;;;5062729;27;86994;-55
2022/10/20 11:17:41;;;;;;;2.93;1.37;;;;;;;;;;5062601;27;88262;-54
2022/10/20 11:20:16;;;;;;;1.30;1.13;;;;;;;;;;5062633;27;87427;-54
2022/10/20 11:22:47;;;;;;;2.33;1.33;;;;;;;;;;5062689;27;86952;-55
2022/10/20 11:25:18;;;;;;;1.30;1.13;;;;;;;;;;5062717;27;86998;-55
2022/10/20 11:27:48;;;;;;;2.73;1.67;;;;;;;;;;5061579;27;88064;-55
2022/10/20 11:30:18;;;;;;;3.97;0.87;;;;;;;;;;5062651;27;87758;-55
2022/10/20 11:32:47;;;;;;;1.53;1.30;;;;;;;;;;5062462;27;87117;-54
2022/10/20 11:35:17;;;;;;;4.33;1.30;;;;;;;;;;5062085;27;87025;-54
2022/10/20 11:37:46;;;;;;;1.30;1.20;;;;;;;;;;5061730;27;87980;-55
2022/10/20 11:40:16;;;;;;;2.70;1.80;;;;;;;;;;5061743;27;88706;-55
2022/10/20 11:42:46;;;;;;;2.03;1.83;;;;;;;;;;5062938;27;87047;-54
2022/10/20 11:45:23;;;;;;;1.37;1.27;;;;;;;;;;5062966;27;87083;-54
2022/10/20 11:47:51;;;;;;;4.00;1.30;;;;;;;;;;5062128;27;89129;-55
2022/10/20 11:50:20;;;;;;;2.73;1.37;;;;;;;;;;5061894;27;87737;-55
2022/10/20 11:52:59;;;;;;;1.97;1.53;;;;;;;;;;5062706;27;86962;-54
2022/10/20 11:55:36;;;;;;;3.00;1.80;;;;;;;;;;5062306;27;86114;-54
2022/10/20 11:58:09;;;;;;;0.83;0.83;;;;;;;;;;5061998;27;87893;-55
2022/10/20 12:00:47;;;;;;;1.47;0.93;;;;;;;;;;5062294;27;87671;-54
2022/10/20 12:03:39;;;;;;;2.43;1.43;;;;;;;;;;5061545;27;87995;-54
2022/10/20 12:06:12;;;;;;;3.83;1.77;;;;;;;;;;5022844;27;87559;-54
2022/10/20 12:08:47;;;;;;;2.03;1.73;;;;;;;;;;5062385;27;89013;-55
2022/10/20 12:11:16;;;;;;;2.60;1.40;;;;;;;;;;5061872;27;87633;-54
2022/10/20 12:13:47;;;;;;;1.07;0.90;;;;;;;;;;5061866;27;87000;-55
2022/10/20 12:16:31;;;;;;;2.73;1.80;;;;;;;;;;5062201;27;86995;-56
2022/10/20 12:19:07;;;;;;;2.70;1.53;;;;;;;;;;5061630;27;86956;-55
2022/10/20 12:21:50;;;;;;;1.93;1.30;;;;;;;;;;5063155;27;87732;-55
2022/10/20 12:24:32;;;;;;;3.73;1.73;;;;;;;;;;5065791;27;86980;-55
2022/10/20 12:27:06;;;;;;;3.57;1.60;;;;;;;;;;5065371;27;87031;-55
2022/10/20 12:29:50;;;;;;;2.40;1.70;;;;;;;;;;5064878;27;89263;-54
2022/10/20 12:32:26;;;;;;;1.67;1.13;;;;;;;;;;5065049;27;88695;-55
2022/10/20 12:34:55;;;;;;;1.87;1.10;;;;;;;;;;5065093;27;86950;-55
2022/10/20 12:37:26;;;;;;;1.70;1.30;;;;;;;;;;5065238;27;88058;-55
2022/10/20 12:39:55;;;;;;;1.70;1.40;;;;;;;;;;5064667;27;88097;-55
2022/10/20 12:42:23;;;;;;;3.00;1.57;;;;;;;;;;5064855;27;88870;-55
2022/10/20 12:44:52;;;;;;;2.23;1.20;;;;;;;;;;5065524;27;86809;-55
2022/10/20 12:47:21;;;;;;;3.23;1.87;;;;;;;;;;5065442;27;86275;-55
2022/10/20 12:49:52;;;;;;;1.60;1.50;;;;;;;;;;5064749;27;87129;-55
2022/10/20 12:52:22;;;;;;;2.20;1.60;;;;;;;;;;5065325;27;89061;-55
2022/10/20 12:54:54;;;;;;;2.53;1.40;;;;;;;;;;5065027;27;87707;-57
2022/10/20 12:57:26;;;;;;;1.47;1.33;;;;;;;;;;5064913;27;86925;-55
2022/10/20 12:59:55;;;;;;;2.10;1.33;;;;;;;;;;5064511;27;88006;-55
2022/10/20 13:02:43;;;;;;;4.87;1.70;;;;;;;;;;5064313;27;88606;-56
2022/10/20 13:05:28;;;;;;;3.70;1.43;;;;;;;;;;5064855;27;87026;-55
2022/10/20 13:08:03;;;;;;;2.00;1.80;;;;;;;;;;5064810;27;87037;-55
2022/10/20 13:10:32;;;;;;;1.90;1.33;;;;;;;;;;5064238;27;89176;-54
2022/10/20 13:13:19;;;;;;;2.73;1.43;;;;;;;;;;5065060;27;87554;-54
2022/10/20 13:15:48;;;;;;;2.47;1.57;;;;;;;;;;5064819;27;87079;-55
2022/10/20 13:18:18;;;;;;;1.73;1.43;;;;;;;;;;5065295;27;86751;-54
2022/10/20 13:20:47;;;;;;;1.27;1.17;;;;;;;;;;5064249;27;90503;-55
2022/10/20 13:23:17;;;;;;;1.80;1.20;;;;;;;;;;5064548;27;88870;-55
2022/10/20 13:25:46;;;;;;;1.60;1.50;;;;;;;;;;5064603;27;86798;-56
2022/10/20 13:28:19;;;;;;;1.27;1.10;;;;;;;;;;5064184;27;87067;-54
2022/10/20 13:31:11;;;;;;;4.97;1.80;;;;;;;;;;5063426;27;89252;-54
2022/10/20 13:33:41;;;;;;;2.63;1.27;;;;;;;;;;5053559;27;87928;-55
2022/10/20 13:36:33;;;;;;;1.70;1.60;;;;;;;;;;5063548;27;86873;-55
2022/10/20 13:39:04;;;;;;;1.67;1.40;;;;;;;;;;5064495;27;86385;-54
2022/10/20 13:41:33;;;;;;;2.40;1.37;;;;;;;;;;5064172;27;87703;-55
2022/10/20 13:44:03;;;;;;;1.80;1.50;;;;;;;;;;5063897;27;88690;-55
2022/10/20 13:46:36;;;;;;;1.27;1.17;;;;;;;;;;5063859;27;88048;-55
2022/10/20 13:49:09;;;;;;;2.67;1.43;;;;;;;;;;5063983;27;87109;-56
2022/10/20 13:51:39;;;;;;;1.77;1.30;;;;;;;;;;5063363;27;87755;-55
2022/10/20 13:54:11;;;;;;;2.40;1.10;;;;;;;;;;5063802;27;87575;-55
2022/10/20 13:56:40;;;;;;;1.60;1.43;;;;;;;;;;5064094;27;86907;-56
2022/10/20 13:59:19;;;;;;;1.37;1.20;;;;;;;;;;5064338;27;87068;-55
2022/10/20 14:01:48;;;;;;;1.70;1.30;;;;;;;;;;5062689;27;87820;-54
2022/10/20 14:04:26;;;;;;;1.50;1.20;;;;;;;;;;5063765;27;87552;-53
2022/10/20 14:06:54;;;;;;;1.93;1.10;;;;;;;;;;5063409;27;87032;-54
2022/10/20 14:09:24;;;;;;;2.63;1.63;;;;;;;;;;5063963;27;87348;-54
2022/10/20 14:11:53;;;;;;;1.63;1.50;;;;;;;;;;5063271;27;88989;-54
2022/10/20 14:14:22;;;;;;;1.20;1.10;;;;;;;;;;5063650;27;89797;-54
2022/10/20 14:16:52;;;;;;;1.20;1.10;;;;;;;;;;5063858;27;87041;-54
2022/10/20 14:19:22;;;;;;;2.30;1.23;;;;;;;;;;5063762;27;86988;-55
2022/10/20 14:21:50;;;;;;;1.53;1.40;;;;;;;;;;5063404;27;88126;-54
2022/10/20 14:24:21;;;;;;;1.43;1.30;;;;;;;;;;5063471;27;87548;-54
2022/10/20 14:26:51;;;;;;;2.03;1.10;;;;;;;;;;5063171;27;87048;-55
2022/10/20 14:29:19;;;;;;;2.33;1.20;;;;;;;;;;5063796;27;86407;-54
2022/10/20 14:31:47;;;;;;;1.10;1.00;;;;;;;;;;5063122;27;88271;-54
2022/10/20 14:34:18;;;;;;;1.67;1.00;;;;;;;;;;5063724;27;87901;-55
2022/10/20 14:36:46;;;;;;;1.27;1.17;;;;;;;;;;5062472;27;87856;-54
2022/10/20 14:39:22;;;;;;;1.40;1.00;;;;;;;;;;5063605;27;86890;-55
2022/10/20 14:41:52;;;;;;;1.43;0.93;;;;;;;;;;5063212;27;88911;-55
2022/10/20 14:44:21;;;;;;;4.40;1.37;;;;;;;;;;5062824;27;87561;-55
2022/10/20 14:46:59;;;;;;;1.93;1.27;;;;;;;;;;5063402;27;87054;-55
2022/10/20 14:49:27;;;;;;;1.53;1.10;;;;;;;;;;5063483;27;87054;-55
2022/10/20 14:51:56;;;;;;;1.40;0.97;;;;;;;;;;5063334;27;88252;-55
2022/10/20 14:54:26;;;;;;;2.33;1.67;;;;;;;;;;5063363;27;87772;-55
2022/10/20 14:56:56;;;;;;;1.83;1.43;;;;;;;;;;5063054;27;86873;-55
2022/10/20 14:59:25;;;;;;;2.13;1.20;;;;;;;;;;5062977;27;87110;-55
2022/10/20 15:02:00;;;;;;;1.43;1.03;;;;;;;;;;5062092;27;88770;-55